INFORMACIÓN METAR y TAF
METAR FOR LEMG
ADDS - METARS form results

(1823 UTC 03 June 2020)
Data provider http://aviationweather.gov/metar/data/
 
METAR text: LEMG 031800Z 33010KT 9999 FEW070 32/13 Q1007 NOSIG
Conditions at: LEMG (MALAGA (CIV/MIL), ES) observed 1800 UTC 03 June 2020
Temperature: 32.0°C (90°F)
Dewpoint: 13.0°C (55°F) [RH = 32%]
Pressure (altimeter): 29.73 inches Hg (1007.0 mb)
Winds: from the NNW (330 degrees) at 12 MPH (10 knots; 5.1 m/s)
Visibility: 6 or more miles (10+ km)
Ceiling: at least 12,000 feet AGL
Clouds: few clouds at 7000 feet AGL
Weather: no significant weather observed at this time

METAR text: LEMG 031730Z 32010KT 9999 FEW070 32/12 Q1007 NOSIG
Conditions at: LEMG (MALAGA (CIV/MIL), ES) observed 1730 UTC 03 June 2020
Temperature: 32.0°C (90°F)
Dewpoint: 12.0°C (54°F) [RH = 30%]
Pressure (altimeter): 29.73 inches Hg (1007.0 mb)
Winds: from the NW (320 degrees) at 12 MPH (10 knots; 5.1 m/s)
Visibility: 6 or more miles (10+ km)
Ceiling: at least 12,000 feet AGL
Clouds: few clouds at 7000 feet AGL
Weather: no significant weather observed at this time

Forecast for: LEMG (MALAGA (CIV/MIL), ES)
Text: TAF LEMG 031700Z 0318/0418 29008KT 9999 FEW040 TX29/0413Z TN17/0406Z
Forecast period: 1800 UTC 03 June 2020 to 1800 UTC 04 June 2020
Forecast type: FROM: standard forecast or significant change
Winds: from the WNW (290 degrees) at 9 MPH (8 knots; 4.1 m/s)
Visibility: 6 or more miles 10+ km)
Ceiling: at least 12,000 feet AGL
Clouds: few clouds at 4000 feet AGL
Weather: no significant weather forecast for this period
Text: PROB30
Forecast period: 1000 to 1800 UTC 04 June 2020
Forecast type: TEMPORARY: The following changes expected for less than half the time period
Winds: from the WNW (300 degrees) at 18 MPH (16 knots; 8.2 m/s)
gusting to 32 MPH (28 knots; 14.4 m/s)
Visibility: 2.49 miles (4.01 km)
Ceiling: at least 12,000 feet AGL
Clouds: few clouds at 3000 feet AGL
Weather: SHRA  (rain showers)

MAPA DE AEROPUERTO

INFORMACIÓN DE PISTA
Pista 12 Longitud 9022 ft Ancho 148 ft
Elevación 52 ft Umbral desplazado 0 ft Rumbo de pista 119
Pista 30 Longitud 9022 ft Ancho 148 ft
Elevación 31 ft Umbral desplazado 0 ft Rumbo de pista 299
Pista 13 Longitud 10500 ft Ancho 148 ft
Elevación 52 ft Umbral desplazado 0 ft Rumbo de pista 133
Pista 31 Longitud 10500 ft Ancho 148 ft
Elevación 31 ft Umbral desplazado 0 ft Rumbo de pista 313

FRECUANCIAS DEL AEROPUERTO
Tipo A/D Nombre APP Frecuencia 123.85 MHZ
Tipo ATIS Nombre ATIS Frecuencia 120.375 MHZ
Tipo CLD Nombre CLR DEL Frecuencia 121.875 MHZ
Tipo GND Nombre GND-W Frecuencia 121.7 MHZ
Tipo GND Nombre GND-E Frecuencia 121.95 MHZ
Tipo TWR Nombre TWR-W (RWY Frecuencia 118.15 MHZ
Tipo TWR Nombre TWR-E (RWY Frecuencia 118.775 MHZ

RADIO AYUDAS DEL AEROPUERTO
Tipo VOR-DME Nombre Martin Frecuencia 112600 KHZ
Tipo VOR-DME Nombre Malaga Frecuencia 112000 KHZ
Tipo VOR-DME Nombre Malaga Frecuencia 113550 KHZ
Tipo NDB Nombre Malaga Frecuencia 330 KHZ